Terminal Aerodrome Forecast
Issued by NWS Greer, SC

Home | Current Version | Previous Version | Text Only | Print | Product List | Glossary On
Versions: 1 2 3 4 5 6 7 8 9 10 11 12 13 14
000
FTUS42 KGSP 191540 AAA
TAFAVL
TAF AMD
KAVL 191540Z 1916/2012 34014G24KT P6SM FEW011 BKN022 OVC030
      TEMPO 1916/1918 SCT025 BKN040
     FM191800 33012G20KT P6SM SCT040
     FM192000 34011G19KT P6SM FEW250
     FM192300 34007KT P6SM FEW250
     FM200500 34003KT P6SM SKC=

USA.gov is the U.S. government's official web portal to all federal, state and local government web resources and services.